createdAt,value
2019-01-31T00:01:56.485Z,21.29
2019-01-31T00:07:51.465Z,28.14
2019-01-31T00:13:46.482Z,23.69
2019-01-31T00:19:41.472Z,26.42
2019-01-31T00:25:36.462Z,22.97
2019-01-31T00:31:31.477Z,28.65
2019-01-31T00:37:26.483Z,24.16
2019-01-31T00:43:21.521Z,27.22
2019-01-31T00:49:16.522Z,27.06
2019-01-31T00:55:11.502Z,25.29
2019-01-31T01:01:06.494Z,23.28
2019-01-31T01:07:01.491Z,28.1
2019-01-31T01:12:56.532Z,22.44
2019-01-31T01:18:51.798Z,31.94
2019-01-31T01:24:46.510Z,72.02
2019-01-31T01:30:41.559Z,36.29
2019-01-31T01:36:36.502Z,20.62
2019-01-31T01:42:31.529Z,23.27
2019-01-31T01:48:26.559Z,15.04
2019-01-31T01:54:21.541Z,17.11
2019-01-31T02:00:16.554Z,12.94
2019-01-31T02:06:11.551Z,12.22
2019-01-31T02:12:06.589Z,17.17
2019-01-31T02:18:01.575Z,35.23
2019-01-31T02:23:56.550Z,18.53
2019-01-31T02:29:51.871Z,19.45
2019-01-31T02:35:46.556Z,19.29
2019-01-31T02:41:41.642Z,13.09
2019-01-31T02:47:36.567Z,12.53
2019-01-31T02:53:31.567Z,17.22
2019-01-31T02:59:26.568Z,14.82
2019-01-31T03:05:21.539Z,13.73
2019-01-31T03:11:16.585Z,12.18
2019-01-31T03:17:11.579Z,14.69
2019-01-31T03:23:06.595Z,17.66
2019-01-31T03:29:01.581Z,56.83
2019-01-31T03:34:56.615Z,23.75
2019-01-31T03:40:52.007Z,25.97
2019-01-31T03:46:46.650Z,29.21
2019-01-31T03:52:41.608Z,32.77
2019-01-31T03:58:36.581Z,25.67
2019-01-31T04:04:31.617Z,21.39
2019-01-31T04:10:26.594Z,37.14
2019-01-31T04:16:21.681Z,18.89
2019-01-31T04:22:16.596Z,23.88
2019-01-31T04:28:11.609Z,29.39
2019-01-31T04:34:06.660Z,25.49
2019-01-31T04:40:01.630Z,31.96
2019-01-31T04:45:56.637Z,16.86
2019-01-31T04:51:51.956Z,20.47
2019-01-31T04:57:46.638Z,21.5
2019-01-31T05:03:41.667Z,26.57
2019-01-31T05:09:36.643Z,13.31
2019-01-31T05:15:31.645Z,20.65
2019-01-31T05:21:26.646Z,24.99
2019-01-31T05:27:21.645Z,33.26
2019-01-31T05:33:16.738Z,13.52
2019-01-31T05:39:11.702Z,17.21
2019-01-31T05:45:06.681Z,17.03
2019-01-31T05:51:01.655Z,14.36
2019-01-31T05:56:56.681Z,14.93
2019-01-31T06:02:52.055Z,16.48
2019-01-31T06:08:46.688Z,18.6
2019-01-31T06:14:41.737Z,14.86
2019-01-31T06:20:36.681Z,11.9
2019-01-31T06:26:31.675Z,16.69
2019-01-31T06:32:26.680Z,16.31
2019-01-31T06:38:21.677Z,19.43
2019-01-31T06:44:16.689Z,16.36
2019-01-31T06:50:11.733Z,12.56
2019-01-31T06:56:06.699Z,14.65
2019-01-31T07:02:01.705Z,18.2
2019-01-31T07:07:56.997Z,16.47
2019-01-31T07:13:51.973Z,17.14
2019-01-31T07:19:46.728Z,19.39
2019-01-31T07:25:41.800Z,17.95
2019-01-31T07:31:36.697Z,12.92
2019-01-31T07:37:31.748Z,15.65
2019-01-31T07:43:26.757Z,13.03
2019-01-31T07:49:21.708Z,14.57
2019-01-31T07:55:16.768Z,11.92
2019-01-31T08:01:11.868Z,14.8
2019-01-31T08:07:06.726Z,11.4
2019-01-31T08:13:01.750Z,13.62
2019-01-31T08:18:57.039Z,14.36
2019-01-31T08:24:51.777Z,12.79
2019-01-31T08:30:46.750Z,12.68
2019-01-31T08:36:41.903Z,11.93
2019-01-31T08:42:36.751Z,12.52
2019-01-31T08:48:31.743Z,13.53
2019-01-31T08:54:26.784Z,11.3
2019-01-31T09:00:21.781Z,12.76
2019-01-31T09:06:16.781Z,13.5
2019-01-31T09:12:15.140Z,15.03
2019-01-31T09:18:06.773Z,7.74
2019-01-31T09:24:01.750Z,10.49
2019-01-31T09:29:56.793Z,12.66
2019-01-31T09:35:51.777Z,28.73
2019-01-31T09:41:46.786Z,11.68
2019-01-31T09:47:41.796Z,17.49
2019-01-31T09:53:36.798Z,18.71
2019-01-31T09:59:31.791Z,10.82
2019-01-31T10:05:26.796Z,12.78
2019-01-31T10:11:21.853Z,15.83
2019-01-31T10:17:16.807Z,12.79
2019-01-31T10:23:11.815Z,11.1
2019-01-31T10:29:06.790Z,12.16
2019-01-31T10:35:01.824Z,14.26
2019-01-31T10:40:57.142Z,13.71
2019-01-31T10:46:51.811Z,13.15
2019-01-31T10:52:46.877Z,11.07
2019-01-31T10:58:41.835Z,9.37
2019-01-31T11:04:36.840Z,9.76
2019-01-31T11:10:31.875Z,10.43
2019-01-31T11:16:26.854Z,8.6
2019-01-31T11:22:21.872Z,15.1
2019-01-31T11:28:16.858Z,11.34
2019-01-31T11:34:11.859Z,18.69
2019-01-31T11:40:06.854Z,11.96
2019-01-31T11:46:01.854Z,10.29
2019-01-31T11:51:57.160Z,10.07
2019-01-31T11:57:51.923Z,8.14
2019-01-31T12:03:46.888Z,10.47
2019-01-31T12:09:41.863Z,10.48
2019-01-31T12:15:36.851Z,11.48
2019-01-31T12:21:31.850Z,9.04
2019-01-31T12:27:26.850Z,8.11
2019-01-31T12:33:21.885Z,7.34
2019-01-31T12:39:16.913Z,9.32
2019-01-31T12:45:11.883Z,4.95
2019-01-31T12:51:06.886Z,5.53
2019-01-31T12:57:02.345Z,5.88
2019-01-31T13:02:57.224Z,6.99
2019-01-31T13:08:51.908Z,5.31
2019-01-31T13:14:46.916Z,5.68
2019-01-31T13:20:41.892Z,7.59
2019-01-31T13:26:36.932Z,5.88
2019-01-31T13:32:31.948Z,4.2
2019-01-31T13:38:26.913Z,4.72
2019-01-31T13:44:21.910Z,4.09
2019-01-31T13:50:16.930Z,7.95
2019-01-31T13:56:11.936Z,9.79
2019-01-31T14:02:09.256Z,4.69
2019-01-31T14:08:01.950Z,6.85
2019-01-31T14:14:08.442Z,8.33
2019-01-31T14:19:51.935Z,5.04
2019-01-31T14:25:46.954Z,6.57
2019-01-31T14:31:41.961Z,5.6
2019-01-31T14:37:36.967Z,10.8
2019-01-31T14:43:31.959Z,8.71
2019-01-31T14:49:27.027Z,7.38
2019-01-31T14:55:21.999Z,6.99
2019-01-31T15:01:16.999Z,8.27
2019-01-31T15:07:11.982Z,10.63
2019-01-31T15:13:06.969Z,8.45
2019-01-31T15:19:02.283Z,6.95
2019-01-31T15:24:57.272Z,5.46
2019-01-31T15:30:52.029Z,8.36
2019-01-31T15:36:46.964Z,6.76
2019-01-31T15:42:41.974Z,8.37
2019-01-31T15:48:37.003Z,6.19
2019-01-31T15:54:31.979Z,7.02
2019-01-31T16:00:27.025Z,8.76
2019-01-31T16:06:21.998Z,7.85
2019-01-31T16:12:17.037Z,10.97
2019-01-31T16:18:12.168Z,7.77
2019-01-31T16:24:07.007Z,7.41
2019-01-31T16:30:02.003Z,7.19
2019-01-31T16:35:57.378Z,7.59
2019-01-31T16:41:52.023Z,5.51
2019-01-31T16:47:47.010Z,7.26
2019-01-31T16:53:42.048Z,7.89
2019-01-31T16:59:37.020Z,9.09
2019-01-31T17:05:32.003Z,10.63
2019-01-31T17:11:27.023Z,8.42
2019-01-31T17:17:22.048Z,13.18
2019-01-31T17:23:17.054Z,9.69
2019-01-31T17:29:12.067Z,12.38
2019-01-31T17:35:07.085Z,28.43
2019-01-31T17:41:02.105Z,14.25
2019-01-31T17:46:57.054Z,18.38
2019-01-31T17:52:52.047Z,13.15
2019-01-31T17:58:47.073Z,12.77
2019-01-31T18:04:42.048Z,21.09
2019-01-31T18:10:37.063Z,22.41
2019-01-31T18:16:32.078Z,22.63
2019-01-31T18:22:27.062Z,20.58
2019-01-31T18:28:22.126Z,18.74
2019-01-31T18:34:17.067Z,16.84
2019-01-31T18:40:12.084Z,12.11
2019-01-31T18:46:07.058Z,16.05
2019-01-31T18:52:02.099Z,20.33
2019-01-31T18:57:57.364Z,15.08
2019-01-31T19:03:52.101Z,15.33
2019-01-31T19:09:47.096Z,13.12
2019-01-31T19:15:42.098Z,25.5
2019-01-31T19:21:37.146Z,17.29
2019-01-31T19:27:32.126Z,15.5
2019-01-31T19:33:27.246Z,15.54
2019-01-31T19:39:22.092Z,11.32
2019-01-31T19:45:17.122Z,11.73
2019-01-31T19:51:12.150Z,10.12
2019-01-31T19:57:07.120Z,10.21
2019-01-31T20:03:02.145Z,11.13
2019-01-31T20:08:57.162Z,14.07
2019-01-31T20:14:52.118Z,19.75
2019-01-31T20:20:47.121Z,16.93
2019-01-31T20:26:42.136Z,16.89
2019-01-31T20:32:37.122Z,17.42
2019-01-31T20:38:32.160Z,24.83
2019-01-31T20:44:27.156Z,20.32
2019-01-31T20:50:22.160Z,42.56
2019-01-31T20:56:17.152Z,24.85
2019-01-31T21:02:12.162Z,16.12
2019-01-31T21:08:07.162Z,16.14
2019-01-31T21:14:02.278Z,16.43
2019-01-31T21:19:57.227Z,12.52
2019-01-31T21:25:52.227Z,14.8
2019-01-31T21:31:47.278Z,13.26
2019-01-31T21:37:42.149Z,14.89
2019-01-31T21:43:37.216Z,21.19
2019-01-31T21:49:32.193Z,30.91
2019-01-31T21:55:27.170Z,27.67
2019-01-31T22:01:22.213Z,23.4
2019-01-31T22:07:17.231Z,24.15
2019-01-31T22:13:12.169Z,23.31
2019-01-31T22:19:07.207Z,21.92
2019-01-31T22:25:02.197Z,22.07
2019-01-31T22:30:57.247Z,20.43
2019-01-31T22:36:52.252Z,19.93
2019-01-31T22:42:47.204Z,21.03
2019-01-31T22:48:42.229Z,20.08
2019-01-31T22:54:37.287Z,22.12
2019-01-31T23:00:32.256Z,20.62
2019-01-31T23:06:27.261Z,22.75
2019-01-31T23:12:22.242Z,24.69
2019-01-31T23:18:17.280Z,27.79
2019-01-31T23:24:12.225Z,27.07
2019-01-31T23:30:07.217Z,25.35
2019-01-31T23:36:02.264Z,31.92
2019-01-31T23:41:57.377Z,27.83
2019-01-31T23:47:52.254Z,25.07
2019-01-31T23:53:47.302Z,24.73
2019-01-31T23:59:42.292Z,20.09
